createdAt,value
2018-05-12T00:00:50.450Z,99.14
2018-05-12T00:01:51.019Z,99.71
2018-05-12T00:02:51.580Z,99.99
2018-05-12T00:03:52.119Z,99.57
2018-05-12T00:04:52.667Z,98.71
2018-05-12T00:05:53.273Z,98.90
2018-05-12T00:06:53.765Z,98.99
2018-05-12T00:07:54.305Z,98.52
2018-05-12T00:08:54.858Z,99.18
2018-05-12T00:09:55.398Z,99.47
2018-05-12T00:10:55.952Z,99.76
2018-05-12T00:11:56.497Z,99.95
2018-05-12T00:12:57.043Z,99.76
2018-05-12T00:13:57.584Z,99.99
2018-05-12T00:14:58.141Z,99.99
2018-05-12T00:15:58.678Z,99.99
2018-05-12T00:16:59.230Z,99.99
2018-05-12T00:17:59.778Z,99.99
2018-05-12T00:19:00.322Z,99.99
2018-05-12T00:20:00.868Z,99.99
2018-05-12T00:21:01.424Z,99.99
2018-05-12T00:22:01.968Z,99.99
2018-05-12T00:23:02.520Z,99.99
2018-05-12T00:24:03.066Z,99.99
2018-05-12T00:25:03.615Z,99.99
2018-05-12T00:26:04.164Z,99.99
2018-05-12T00:27:04.716Z,99.99
2018-05-12T00:28:05.262Z,99.99
2018-05-12T00:29:05.802Z,99.99
2018-05-12T00:30:06.349Z,99.99
2018-05-12T00:31:06.897Z,99.99
2018-05-12T00:32:07.452Z,99.99
2018-05-12T00:33:07.988Z,99.99
2018-05-12T00:34:08.541Z,99.99
2018-05-12T00:35:09.085Z,99.99
2018-05-12T00:36:09.632Z,99.99
2018-05-12T00:37:10.183Z,99.99
2018-05-12T00:38:10.730Z,99.99
2018-05-12T00:39:11.278Z,99.99
2018-05-12T00:40:11.830Z,99.99
2018-05-12T00:41:12.378Z,99.99
2018-05-12T00:42:12.926Z,99.99
2018-05-12T00:43:13.478Z,99.99
2018-05-12T00:44:14.019Z,99.99
2018-05-12T00:45:14.570Z,99.99
2018-05-12T00:46:15.114Z,99.99
2018-05-12T00:47:15.665Z,99.99
2018-05-12T00:48:16.215Z,99.99
2018-05-12T00:49:16.761Z,99.99
2018-05-12T00:50:17.306Z,99.99
2018-05-12T00:51:17.857Z,99.99
2018-05-12T00:52:18.396Z,99.99
2018-05-12T00:53:18.939Z,99.99
2018-05-12T00:54:19.486Z,99.99
2018-05-12T00:55:20.031Z,99.99
2018-05-12T00:56:20.579Z,99.99
2018-05-12T00:57:21.128Z,99.99
2018-05-12T00:58:21.677Z,99.99
2018-05-12T00:59:22.223Z,99.99
2018-05-12T01:00:22.770Z,99.99
2018-05-12T01:01:23.315Z,99.99
2018-05-12T01:02:23.870Z,99.99
2018-05-12T01:03:24.414Z,99.99
2018-05-12T01:04:24.962Z,99.99
2018-05-12T01:05:25.505Z,99.99
2018-05-12T01:06:26.057Z,99.99
2018-05-12T01:07:26.606Z,99.99
2018-05-12T01:08:27.152Z,99.99
2018-05-12T01:09:27.704Z,99.99
2018-05-12T01:10:28.253Z,99.99
2018-05-12T01:11:28.801Z,99.99
2018-05-12T01:12:29.349Z,99.99
2018-05-12T01:13:29.913Z,99.99
2018-05-12T01:14:30.439Z,99.99
2018-05-12T01:15:30.990Z,99.99
2018-05-12T01:16:31.543Z,99.99
2018-05-12T01:17:32.083Z,99.99
2018-05-12T01:18:32.625Z,99.99
2018-05-12T01:19:33.168Z,99.99
2018-05-12T01:20:33.714Z,99.99
2018-05-12T01:21:34.261Z,99.99
2018-05-12T01:22:34.813Z,99.99
2018-05-12T01:23:35.357Z,99.99
2018-05-12T01:24:35.905Z,99.99
2018-05-12T01:25:36.450Z,99.99
2018-05-12T01:26:36.998Z,99.99
2018-05-12T01:27:37.547Z,99.99
2018-05-12T01:28:38.096Z,99.99
2018-05-12T01:29:38.641Z,99.99
2018-05-12T01:30:39.191Z,99.99
2018-05-12T01:31:39.739Z,99.99
2018-05-12T01:32:40.287Z,99.99
2018-05-12T01:33:40.839Z,99.99
2018-05-12T01:34:41.388Z,99.99
2018-05-12T01:35:41.930Z,99.99
2018-05-12T01:36:42.483Z,99.99
2018-05-12T01:37:43.030Z,99.99
2018-05-12T01:38:43.577Z,99.99
2018-05-12T01:39:44.128Z,99.99
2018-05-12T01:40:44.674Z,99.99
2018-05-12T01:41:45.220Z,99.99
2018-05-12T01:42:45.766Z,99.99
2018-05-12T01:43:46.317Z,99.99
2018-05-12T01:44:46.866Z,99.99
2018-05-12T01:45:47.410Z,99.99
2018-05-12T01:46:47.963Z,99.99
2018-05-12T01:47:48.509Z,99.99
2018-05-12T01:48:49.057Z,99.99
2018-05-12T01:49:49.604Z,99.99
2018-05-12T01:50:50.152Z,99.99
2018-05-12T01:51:50.703Z,99.99
2018-05-12T01:52:51.247Z,99.99
2018-05-12T01:53:51.797Z,99.99
2018-05-12T01:54:52.347Z,99.99
2018-05-12T01:55:52.897Z,99.99
2018-05-12T01:56:53.447Z,99.99
2018-05-12T01:57:53.990Z,99.99
2018-05-12T01:58:54.532Z,99.99
2018-05-12T01:59:55.083Z,99.99
2018-05-12T02:00:55.633Z,99.99
2018-05-12T02:01:56.177Z,99.99
2018-05-12T02:02:56.722Z,99.99
2018-05-12T02:03:57.270Z,99.99
2018-05-12T02:04:57.818Z,99.99
2018-05-12T02:05:58.368Z,99.99
2018-05-12T02:06:58.911Z,99.99
2018-05-12T02:07:59.460Z,99.99
2018-05-12T02:09:00.014Z,99.99
2018-05-12T02:10:00.558Z,99.99
2018-05-12T02:11:01.103Z,99.99
2018-05-12T02:12:01.645Z,99.99
2018-05-12T02:13:02.213Z,99.99
2018-05-12T02:14:02.742Z,99.99
2018-05-12T02:15:03.289Z,99.99
2018-05-12T02:16:03.837Z,99.99
2018-05-12T02:17:04.385Z,99.99
2018-05-12T02:18:04.925Z,99.99
2018-05-12T02:19:05.473Z,99.99
2018-05-12T02:20:06.022Z,99.99
2018-05-12T02:21:06.568Z,99.99
2018-05-12T02:22:07.115Z,99.99
2018-05-12T02:23:07.661Z,99.99
2018-05-12T02:24:08.201Z,99.99
2018-05-12T02:25:08.752Z,99.99
2018-05-12T02:26:09.301Z,99.99
2018-05-12T02:27:09.849Z,99.99
2018-05-12T02:28:10.394Z,99.99
2018-05-12T02:29:10.938Z,99.99
2018-05-12T02:30:11.489Z,99.99
2018-05-12T02:31:12.041Z,99.99
2018-05-12T02:32:12.580Z,99.99
2018-05-12T02:33:13.130Z,99.99
2018-05-12T02:34:13.676Z,99.99
2018-05-12T02:35:14.220Z,99.99
2018-05-12T02:36:14.859Z,99.99
2018-05-12T02:37:15.313Z,99.99
2018-05-12T02:38:15.863Z,99.99
2018-05-12T02:39:16.412Z,99.99
2018-05-12T02:40:16.955Z,99.99
2018-05-12T02:41:17.497Z,99.99
2018-05-12T02:42:18.043Z,99.99
2018-05-12T02:43:18.580Z,99.99
2018-05-12T02:44:19.139Z,99.99
2018-05-12T02:45:19.683Z,99.99
2018-05-12T02:46:20.234Z,99.99
2018-05-12T02:47:20.779Z,99.99
2018-05-12T02:48:21.327Z,99.99
2018-05-12T02:49:21.875Z,99.99
2018-05-12T02:50:22.414Z,99.99
2018-05-12T02:51:22.963Z,99.99
2018-05-12T02:52:23.520Z,99.99
2018-05-12T02:53:24.065Z,99.99
2018-05-12T02:54:24.608Z,99.99
2018-05-12T02:55:25.154Z,99.99
2018-05-12T02:56:25.701Z,99.99
2018-05-12T02:57:26.250Z,99.99
2018-05-12T02:58:26.789Z,99.99
2018-05-12T02:59:27.335Z,99.99
2018-05-12T03:00:27.879Z,99.99
2018-05-12T03:01:28.424Z,99.99
2018-05-12T03:02:28.965Z,99.99
2018-05-12T03:03:29.513Z,99.99
2018-05-12T03:04:30.065Z,99.99
2018-05-12T03:05:30.610Z,99.99
2018-05-12T03:06:31.154Z,99.99
2018-05-12T03:07:31.698Z,99.99
2018-05-12T03:08:32.245Z,99.99
2018-05-12T03:09:32.797Z,99.99
2018-05-12T03:10:33.341Z,99.99
2018-05-12T03:11:33.886Z,99.99
2018-05-12T03:12:34.432Z,99.99
2018-05-12T03:13:34.978Z,99.99
2018-05-12T03:14:35.520Z,99.99
2018-05-12T03:15:36.130Z,99.99
2018-05-12T03:16:36.613Z,99.99
2018-05-12T03:17:37.158Z,99.99
2018-05-12T03:18:37.701Z,99.99
2018-05-12T03:19:38.251Z,99.99
2018-05-12T03:20:38.801Z,99.99
2018-05-12T03:21:39.349Z,99.99
2018-05-12T03:22:39.895Z,99.99
2018-05-12T03:23:40.445Z,99.99
2018-05-12T03:24:40.986Z,99.99
2018-05-12T03:25:41.540Z,99.99
2018-05-12T03:26:42.097Z,99.99
2018-05-12T03:27:42.633Z,99.99
2018-05-12T03:28:43.179Z,99.99
2018-05-12T03:29:43.723Z,99.99
2018-05-12T03:30:44.271Z,99.99
2018-05-12T03:31:44.824Z,99.99
2018-05-12T03:32:45.368Z,99.99
2018-05-12T03:33:45.918Z,99.99
2018-05-12T03:34:46.465Z,99.99
2018-05-12T03:35:47.013Z,99.99
2018-05-12T03:36:47.571Z,99.99
2018-05-12T03:37:48.121Z,99.99
2018-05-12T03:38:48.672Z,99.99
2018-05-12T03:39:49.217Z,99.99
2018-05-12T03:40:49.761Z,99.99
2018-05-12T03:41:50.309Z,99.99
2018-05-12T03:42:50.858Z,99.99
2018-05-12T03:43:51.404Z,99.99
2018-05-12T03:44:51.949Z,99.99
2018-05-12T03:45:52.500Z,99.99
2018-05-12T03:46:53.050Z,99.99
2018-05-12T03:47:53.597Z,99.99
2018-05-12T03:48:54.150Z,99.99
2018-05-12T03:49:54.699Z,99.99
2018-05-12T03:50:55.246Z,99.99
2018-05-12T03:51:55.797Z,99.99
2018-05-12T03:52:56.343Z,99.99
2018-05-12T03:53:56.895Z,99.99
2018-05-12T03:54:57.445Z,99.99
2018-05-12T03:55:57.994Z,99.99
2018-05-12T03:56:58.538Z,99.99
2018-05-12T03:57:59.089Z,99.99
2018-05-12T03:58:59.635Z,99.99
2018-05-12T04:00:00.193Z,99.99
2018-05-12T04:01:00.731Z,99.99
2018-05-12T04:02:01.277Z,99.99
2018-05-12T04:03:01.829Z,99.99
2018-05-12T04:04:02.378Z,99.99
2018-05-12T04:05:02.935Z,99.99
2018-05-12T04:06:03.481Z,99.99
2018-05-12T04:07:04.032Z,99.99
2018-05-12T04:08:04.587Z,99.99
2018-05-12T04:09:05.136Z,99.99
2018-05-12T04:10:05.684Z,99.99
2018-05-12T04:11:06.237Z,99.99
2018-05-12T04:12:06.789Z,99.99
2018-05-12T04:13:07.337Z,99.99
2018-05-12T04:14:07.883Z,99.99
2018-05-12T04:15:08.435Z,99.99
2018-05-12T04:16:08.994Z,99.99
2018-05-12T04:17:09.542Z,99.99
2018-05-12T04:18:10.093Z,99.99
2018-05-12T04:19:10.645Z,99.99
2018-05-12T04:20:11.200Z,99.99
2018-05-12T04:21:11.751Z,99.99
2018-05-12T04:22:12.304Z,99.99
2018-05-12T04:23:12.854Z,99.99
2018-05-12T04:24:13.405Z,99.99
2018-05-12T04:25:13.958Z,99.99
2018-05-12T04:26:14.510Z,99.99
2018-05-12T04:27:15.055Z,99.99
2018-05-12T04:28:15.606Z,99.99
2018-05-12T04:29:16.163Z,99.99
2018-05-12T04:30:16.713Z,99.99
2018-05-12T04:31:17.268Z,99.99
2018-05-12T04:32:17.817Z,99.99
2018-05-12T04:33:18.369Z,99.99
2018-05-12T04:34:18.918Z,99.99
2018-05-12T04:35:19.464Z,99.99
2018-05-12T04:36:20.018Z,99.99
2018-05-12T04:37:20.563Z,99.99
2018-05-12T04:38:21.124Z,99.99
2018-05-12T04:39:21.679Z,99.99
2018-05-12T04:40:22.232Z,99.99
2018-05-12T04:41:22.781Z,99.99
2018-05-12T04:42:23.329Z,99.99
2018-05-12T04:43:23.953Z,99.99
2018-05-12T04:44:24.438Z,99.99
2018-05-12T04:45:24.988Z,99.99
2018-05-12T04:46:25.541Z,99.99
2018-05-12T04:47:26.089Z,99.99
2018-05-12T04:48:26.640Z,99.99
2018-05-12T04:49:27.191Z,99.99
2018-05-12T04:50:27.748Z,99.99
2018-05-12T04:51:28.304Z,99.99
2018-05-12T04:52:28.857Z,99.99
2018-05-12T04:53:29.414Z,99.99
2018-05-12T04:54:29.967Z,99.99
2018-05-12T04:55:30.524Z,99.99
2018-05-12T04:56:31.071Z,99.99
2018-05-12T04:57:31.627Z,99.99
2018-05-12T04:58:32.186Z,99.99
2018-05-12T04:59:32.740Z,99.99
2018-05-12T05:00:33.290Z,99.99
2018-05-12T05:01:33.846Z,99.99
2018-05-12T05:02:34.397Z,99.99
2018-05-12T05:03:34.955Z,99.99
2018-05-12T05:04:35.501Z,99.99
2018-05-12T05:05:36.053Z,99.99
2018-05-12T05:06:36.603Z,99.99
2018-05-12T05:07:37.156Z,99.99
2018-05-12T05:08:37.712Z,99.99
2018-05-12T05:09:38.271Z,99.99
2018-05-12T05:10:38.824Z,99.99
2018-05-12T05:11:39.379Z,99.99
2018-05-12T05:12:39.936Z,97.42
2018-05-12T05:13:40.495Z,95.27
2018-05-12T05:14:41.050Z,92.68
2018-05-12T05:15:41.614Z,91.67
2018-05-12T05:16:42.168Z,88.90
2018-05-12T05:17:42.732Z,87.88
2018-05-12T05:18:43.292Z,85.58
2018-05-12T05:19:43.855Z,84.95
2018-05-12T05:20:44.416Z,82.98
2018-05-12T05:21:44.978Z,81.40
2018-05-12T05:22:45.539Z,80.73
2018-05-12T05:23:46.101Z,79.42
2018-05-12T05:24:46.661Z,78.23
2018-05-12T05:25:47.226Z,78.77
2018-05-12T05:26:47.788Z,79.49
2018-05-12T05:27:48.353Z,81.08
2018-05-12T05:28:48.915Z,83.00
2018-05-12T05:29:49.470Z,84.95
2018-05-12T05:30:50.032Z,85.10
2018-05-12T05:31:50.595Z,83.56
2018-05-12T05:32:51.152Z,82.35
2018-05-12T05:33:51.711Z,81.68
2018-05-12T05:34:52.273Z,81.59
2018-05-12T05:35:52.835Z,82.54
2018-05-12T05:36:53.401Z,82.87
2018-05-12T05:37:53.990Z,82.43
2018-05-12T05:38:54.524Z,80.94
2018-05-12T05:39:55.085Z,78.96
2018-05-12T05:40:55.644Z,77.17
2018-05-12T05:41:56.203Z,75.82
2018-05-12T05:42:56.776Z,74.71
2018-05-12T05:43:57.348Z,74.16
2018-05-12T05:44:57.897Z,72.43
2018-05-12T05:45:58.464Z,71.76
2018-05-12T05:46:59.032Z,71.91
2018-05-12T05:47:59.599Z,72.49
2018-05-12T05:49:00.164Z,72.97
2018-05-12T05:50:00.733Z,72.91
2018-05-12T05:51:01.296Z,72.85
2018-05-12T05:52:01.865Z,72.27
2018-05-12T05:53:02.432Z,71.31
2018-05-12T05:54:03.002Z,71.06
2018-05-12T05:55:03.570Z,70.51
2018-05-12T05:56:04.138Z,68.87
2018-05-12T05:57:04.709Z,68.19
2018-05-12T05:58:05.279Z,68.26
2018-05-12T05:59:05.844Z,68.55
2018-05-12T06:00:06.408Z,68.87
2018-05-12T06:01:06.974Z,68.23
2018-05-12T06:02:07.545Z,66.88
2018-05-12T06:03:08.106Z,67.46
2018-05-12T06:04:08.674Z,66.72
2018-05-12T06:05:09.243Z,66.36
2018-05-12T06:06:09.814Z,64.69
2018-05-12T06:07:10.473Z,65.59
2018-05-12T06:08:10.947Z,65.40
2018-05-12T06:09:11.511Z,65.40
2018-05-12T06:10:12.073Z,65.50
2018-05-12T06:11:12.641Z,64.59
2018-05-12T06:12:13.221Z,62.95
2018-05-12T06:13:13.774Z,63.02
2018-05-12T06:14:14.343Z,64.08
2018-05-12T06:15:14.914Z,63.40
2018-05-12T06:16:15.481Z,63.76
2018-05-12T06:17:16.046Z,64.05
2018-05-12T06:18:16.615Z,63.85
2018-05-12T06:19:17.182Z,64.43
2018-05-12T06:20:17.751Z,64.34
2018-05-12T06:21:18.325Z,64.34
2018-05-12T06:22:18.892Z,62.89
2018-05-12T06:23:19.467Z,63.79
2018-05-12T06:24:20.115Z,63.92
2018-05-12T06:25:20.595Z,63.18
2018-05-12T06:26:21.167Z,62.88
2018-05-12T06:27:21.731Z,61.92
2018-05-12T06:28:22.299Z,61.76
2018-05-12T06:29:22.868Z,61.27
2018-05-12T06:30:23.441Z,61.36
2018-05-12T06:31:24.011Z,61.46
2018-05-12T06:32:24.578Z,60.50
2018-05-12T06:33:25.149Z,60.27
2018-05-12T06:34:25.722Z,60.30
2018-05-12T06:35:26.285Z,58.92
2018-05-12T06:36:26.859Z,59.18
2018-05-12T06:37:27.425Z,60.11
2018-05-12T06:38:27.998Z,61.25
2018-05-12T06:39:28.562Z,62.08
2018-05-12T06:40:29.134Z,62.66
2018-05-12T06:41:29.701Z,63.79
2018-05-12T06:42:30.273Z,65.24
2018-05-12T06:43:30.841Z,65.62
2018-05-12T06:44:31.417Z,65.82
2018-05-12T06:45:31.978Z,66.11
2018-05-12T06:46:32.550Z,65.91
2018-05-12T06:47:33.117Z,65.72
2018-05-12T06:48:33.686Z,64.76
2018-05-12T06:49:34.257Z,65.08
2018-05-12T06:50:34.822Z,64.21
2018-05-12T06:51:35.386Z,64.37
2018-05-12T06:52:35.956Z,65.24
2018-05-12T06:53:36.526Z,65.17
2018-05-12T06:54:37.095Z,63.98
2018-05-12T06:55:37.664Z,64.05
2018-05-12T06:56:38.228Z,64.82
2018-05-12T06:57:38.799Z,65.78
2018-05-12T06:58:39.369Z,65.78
2018-05-12T06:59:39.934Z,65.78
2018-05-12T07:00:40.507Z,65.82
2018-05-12T07:01:41.073Z,65.34
2018-05-12T07:02:41.643Z,64.98
2018-05-12T07:03:42.209Z,63.95
2018-05-12T07:04:42.773Z,62.89
2018-05-12T07:05:43.341Z,62.15
2018-05-12T07:06:43.913Z,61.83
2018-05-12T07:07:44.483Z,62.89
2018-05-12T07:08:45.058Z,63.76
2018-05-12T07:09:45.624Z,63.02
2018-05-12T07:10:46.193Z,62.73
2018-05-12T07:11:46.761Z,61.86
2018-05-12T07:12:47.338Z,61.60
2018-05-12T07:13:47.899Z,61.63
2018-05-12T07:14:48.466Z,60.66
2018-05-12T07:15:49.037Z,61.33
2018-05-12T07:16:49.609Z,60.30
2018-05-12T07:17:50.184Z,59.17
2018-05-12T07:18:50.753Z,59.17
2018-05-12T07:19:51.328Z,58.42
2018-05-12T07:20:51.903Z,57.87
2018-05-12T07:21:52.475Z,57.58
2018-05-12T07:22:53.043Z,57.87
2018-05-12T07:23:53.615Z,57.48
2018-05-12T07:24:54.185Z,58.26
2018-05-12T07:25:54.756Z,57.78
2018-05-12T07:26:55.329Z,58.16
2018-05-12T07:27:55.901Z,58.29
2018-05-12T07:28:56.476Z,56.93
2018-05-12T07:29:57.053Z,57.42
2018-05-12T07:30:57.624Z,56.35
2018-05-12T07:31:58.199Z,57.42
2018-05-12T07:32:58.766Z,56.23
2018-05-12T07:33:59.338Z,55.87
2018-05-12T07:34:59.909Z,55.87
2018-05-12T07:36:00.477Z,56.09
2018-05-12T07:37:01.045Z,56.09
2018-05-12T07:38:01.622Z,55.79
2018-05-12T07:39:02.242Z,55.43
2018-05-12T07:40:02.760Z,55.53
2018-05-12T07:41:03.327Z,55.14
2018-05-12T07:42:03.903Z,54.63
2018-05-12T07:43:04.474Z,54.92
2018-05-12T07:44:05.042Z,54.90
2018-05-12T07:45:05.630Z,54.90
2018-05-12T07:46:06.193Z,55.08
2018-05-12T07:47:06.754Z,54.80
2018-05-12T07:48:07.329Z,55.83
2018-05-12T07:49:07.902Z,56.74
2018-05-12T07:50:08.471Z,56.03
2018-05-12T07:51:09.035Z,56.54
2018-05-12T07:52:09.607Z,56.25
2018-05-12T07:53:10.177Z,56.25
2018-05-12T07:54:10.750Z,56.54
2018-05-12T07:55:11.325Z,56.18
2018-05-12T07:56:11.891Z,55.87
2018-05-12T07:57:12.462Z,56.51
2018-05-12T07:58:13.037Z,57.03
2018-05-12T07:59:13.613Z,57.22
2018-05-12T08:00:14.256Z,57.73
2018-05-12T08:01:14.745Z,56.01
2018-05-12T08:02:15.315Z,56.11
2018-05-12T08:03:15.886Z,55.73
2018-05-12T08:04:16.461Z,54.56
2018-05-12T08:05:17.035Z,54.10
2018-05-12T08:06:17.602Z,53.81
2018-05-12T08:07:18.169Z,53.54
2018-05-12T08:08:18.738Z,53.54
2018-05-12T08:09:19.310Z,52.76
2018-05-12T08:10:19.883Z,52.76
2018-05-12T08:11:20.454Z,52.69
2018-05-12T08:12:21.025Z,51.60
2018-05-12T08:13:21.591Z,51.50
2018-05-12T08:14:22.160Z,51.70
2018-05-12T08:15:22.733Z,51.57
2018-05-12T08:16:23.297Z,51.70
2018-05-12T08:17:23.868Z,51.70
2018-05-12T08:18:24.439Z,50.75
2018-05-12T08:19:25.016Z,50.09
2018-05-12T08:20:25.583Z,49.32
2018-05-12T08:21:26.153Z,48.36
2018-05-12T08:22:26.743Z,47.98
2018-05-12T08:23:27.293Z,48.49
2018-05-12T08:24:27.865Z,49.15
2018-05-12T08:25:28.439Z,49.15
2018-05-12T08:26:29.011Z,48.56
2018-05-12T08:27:29.582Z,49.17
2018-05-12T08:28:30.157Z,48.88
2018-05-12T08:29:30.730Z,48.29
2018-05-12T08:30:31.297Z,48.51
2018-05-12T08:31:31.907Z,48.90
2018-05-12T08:32:32.443Z,48.39
2018-05-12T08:33:33.015Z,47.15
2018-05-12T08:34:33.591Z,46.39
2018-05-12T08:35:34.166Z,46.69
2018-05-12T08:36:34.734Z,46.56
2018-05-12T08:37:35.300Z,45.88
2018-05-12T08:38:35.868Z,46.20
2018-05-12T08:39:36.466Z,47.44
2018-05-12T08:40:37.007Z,45.57
2018-05-12T08:41:37.574Z,46.34
2018-05-12T08:42:38.142Z,45.74
2018-05-12T08:43:38.715Z,45.94
2018-05-12T08:44:39.289Z,45.95
2018-05-12T08:45:39.861Z,46.13
2018-05-12T08:46:40.431Z,46.81
2018-05-12T08:47:41.024Z,45.94
2018-05-12T08:48:41.569Z,44.67
2018-05-12T08:49:42.144Z,44.96
2018-05-12T08:50:42.712Z,45.52
2018-05-12T08:51:43.283Z,46.86
2018-05-12T08:52:43.854Z,45.98
2018-05-12T08:54:59.885Z,45.48
2018-05-12T08:56:00.459Z,46.37
2018-05-12T08:57:01.032Z,46.77
2018-05-12T08:58:01.602Z,47.83
2018-05-12T08:59:02.170Z,46.50
2018-05-12T09:00:02.747Z,45.04
2018-05-12T09:01:03.316Z,43.50
2018-05-12T09:02:03.887Z,44.89
2018-05-12T09:03:04.462Z,45.68
2018-05-12T09:04:05.027Z,45.59
2018-05-12T09:05:05.593Z,45.57
2018-05-12T09:06:06.167Z,44.42
2018-05-12T09:07:06.741Z,43.04
2018-05-12T09:08:07.304Z,43.33
2018-05-12T09:09:07.882Z,43.43
2018-05-12T09:10:08.446Z,42.43
2018-05-12T09:11:09.012Z,42.24
2018-05-12T09:12:09.577Z,42.33
2018-05-12T09:13:10.150Z,41.75
2018-05-12T09:14:10.726Z,40.81
2018-05-12T09:15:11.296Z,41.50
2018-05-12T09:16:11.869Z,41.69
2018-05-12T09:17:12.439Z,42.28
2018-05-12T09:18:13.006Z,41.50
2018-05-12T09:19:13.662Z,41.91
2018-05-12T09:20:14.139Z,42.10
2018-05-12T09:21:14.710Z,41.81
2018-05-12T09:22:15.280Z,41.44
2018-05-12T09:23:15.867Z,42.32
2018-05-12T09:24:16.430Z,43.57
2018-05-12T09:25:17.005Z,42.79
2018-05-12T09:26:17.572Z,41.93
2018-05-12T09:27:18.144Z,41.22
2018-05-12T09:28:18.719Z,40.45
2018-05-12T09:29:19.294Z,40.64
2018-05-12T09:30:19.864Z,41.71
2018-05-12T09:31:20.430Z,41.91
2018-05-12T09:32:21.002Z,41.69
2018-05-12T09:33:21.577Z,43.64
2018-05-12T09:34:22.148Z,43.64
2018-05-12T09:35:22.721Z,43.13
2018-05-12T09:36:23.301Z,43.62
2018-05-12T09:37:23.870Z,44.48
2018-05-12T09:38:24.442Z,44.18
2018-05-12T09:39:25.014Z,45.54
2018-05-12T09:40:25.586Z,43.01
2018-05-12T09:41:26.155Z,42.72
2018-05-12T09:42:26.847Z,43.30
2018-05-12T09:43:27.287Z,42.82
2018-05-12T09:44:27.854Z,42.63
2018-05-12T09:45:28.428Z,42.99
2018-05-12T09:46:29.002Z,42.85
2018-05-12T09:47:29.566Z,44.75
2018-05-12T09:48:30.139Z,45.92
2018-05-12T09:49:30.706Z,45.72
2018-05-12T09:50:31.274Z,46.31
2018-05-12T09:51:31.841Z,47.66
2018-05-12T09:52:32.411Z,48.32
2018-05-12T09:53:32.980Z,47.74
2018-05-12T09:54:33.551Z,46.89
2018-05-12T09:55:34.119Z,46.89
2018-05-12T09:56:34.692Z,46.50
2018-05-12T09:57:35.259Z,46.04
2018-05-12T09:58:35.830Z,46.45
2018-05-12T09:59:36.450Z,46.52
2018-05-12T10:00:36.963Z,48.05
2018-05-12T10:01:37.538Z,47.57
2018-05-12T10:02:38.106Z,48.22
2018-05-12T10:03:38.674Z,48.22
2018-05-12T10:04:39.240Z,47.25
2018-05-12T10:05:39.809Z,48.13
2018-05-12T10:06:40.377Z,49.10
2018-05-12T10:07:40.947Z,48.80
2018-05-12T10:08:41.514Z,48.78
2018-05-12T10:09:42.205Z,48.88
2018-05-12T10:10:42.645Z,49.05
2018-05-12T10:11:43.215Z,49.56
2018-05-12T10:12:43.841Z,49.77
2018-05-12T10:13:44.354Z,49.00
2018-05-12T10:14:44.924Z,48.00
2018-05-12T10:15:45.493Z,48.71
2018-05-12T10:16:46.062Z,48.80
2018-05-12T10:17:46.629Z,47.93
2018-05-12T10:18:47.197Z,47.76
2018-05-12T10:19:47.774Z,50.19
2018-05-12T10:20:48.367Z,47.93
2018-05-12T10:21:48.908Z,49.02
2018-05-12T10:22:49.478Z,47.83
2018-05-12T10:23:50.051Z,47.47
2018-05-12T10:24:50.620Z,48.83
2018-05-12T10:25:51.181Z,48.73
2018-05-12T10:26:51.745Z,47.78
2018-05-12T10:27:52.315Z,47.01
2018-05-12T10:28:52.887Z,47.88
2018-05-12T10:29:53.459Z,46.89
2018-05-12T10:30:54.031Z,48.35
2018-05-12T10:31:54.598Z,49.02
2018-05-12T10:32:55.167Z,49.19
2018-05-12T10:33:55.733Z,46.77
2018-05-12T10:34:56.301Z,47.55
2018-05-12T10:35:56.874Z,47.83
2018-05-12T10:36:57.439Z,47.83
2018-05-12T10:37:58.010Z,48.25
2018-05-12T10:38:58.651Z,48.93
2018-05-12T10:39:59.144Z,47.86
2018-05-12T10:40:59.715Z,47.57
2018-05-12T10:42:00.280Z,47.01
2018-05-12T10:43:00.851Z,47.40
2018-05-12T10:44:01.417Z,47.98
2018-05-12T10:45:01.988Z,46.33
2018-05-12T10:46:02.557Z,46.62
2018-05-12T10:47:03.124Z,45.87
2018-05-12T10:48:03.697Z,45.67
2018-05-12T10:49:04.269Z,44.97
2018-05-12T10:50:04.836Z,44.79
2018-05-12T10:51:05.408Z,45.09
2018-05-12T10:52:05.981Z,44.60
2018-05-12T10:53:06.551Z,44.89
2018-05-12T10:54:07.124Z,44.99
2018-05-12T10:55:07.690Z,47.03
2018-05-12T10:56:08.259Z,48.10
2018-05-12T10:57:08.832Z,47.34
2018-05-12T10:58:09.399Z,47.05
2018-05-12T10:59:09.978Z,47.15
2018-05-12T11:00:10.538Z,46.77
2018-05-12T11:01:11.106Z,45.77
2018-05-12T11:02:11.677Z,46.33
2018-05-12T11:03:12.244Z,46.42
2018-05-12T11:04:12.809Z,48.18
2018-05-12T11:05:13.372Z,47.71
2018-05-12T11:06:13.939Z,48.22
2018-05-12T11:07:14.505Z,46.28
2018-05-12T11:08:15.146Z,45.75
2018-05-12T11:09:15.640Z,46.04
2018-05-12T11:10:16.212Z,46.42
2018-05-12T11:11:16.784Z,46.42
2018-05-12T11:12:17.351Z,47.01
2018-05-12T11:13:17.922Z,46.52
2018-05-12T11:14:18.489Z,45.84
2018-05-12T11:15:19.059Z,48.00
2018-05-12T11:16:19.628Z,47.23
2018-05-12T11:17:20.193Z,46.94
2018-05-12T11:18:20.765Z,46.74
2018-05-12T11:19:21.331Z,47.91
2018-05-12T11:20:22.022Z,47.61
2018-05-12T11:21:22.463Z,46.08
2018-05-12T11:22:23.032Z,46.40
2018-05-12T11:23:23.609Z,45.23
2018-05-12T11:24:24.173Z,45.09
2018-05-12T11:25:24.744Z,46.96
2018-05-12T11:26:25.321Z,47.25
2018-05-12T11:27:25.885Z,45.67
2018-05-12T11:28:26.455Z,45.75
2018-05-12T11:29:27.020Z,46.35
2018-05-12T11:30:27.588Z,47.52
2018-05-12T11:31:28.159Z,47.23
2018-05-12T11:32:28.730Z,47.42
2018-05-12T11:33:29.300Z,47.13
2018-05-12T11:34:29.875Z,47.13
2018-05-12T11:35:30.447Z,46.84
2018-05-12T11:36:31.023Z,46.15
2018-05-12T11:37:31.587Z,45.87
2018-05-12T11:38:32.154Z,47.03
2018-05-12T11:39:32.725Z,46.15
2018-05-12T11:40:33.299Z,44.31
2018-05-12T11:41:33.874Z,44.31
2018-05-12T11:42:34.442Z,44.31
2018-05-12T11:43:35.019Z,44.29
2018-05-12T11:44:35.647Z,44.29
2018-05-12T11:45:36.159Z,45.45
2018-05-12T11:46:36.734Z,45.45
2018-05-12T11:47:37.302Z,45.55
2018-05-12T11:48:37.867Z,45.38
2018-05-12T11:49:38.435Z,45.87
2018-05-12T11:50:39.008Z,45.28
2018-05-12T11:51:39.574Z,44.51
2018-05-12T11:52:40.147Z,44.04
2018-05-12T11:53:40.716Z,44.35
2018-05-12T11:54:41.298Z,44.74
2018-05-12T11:55:41.858Z,44.84
2018-05-12T11:56:42.429Z,43.38
2018-05-12T11:57:42.995Z,42.19
2018-05-12T11:58:43.568Z,42.27
2018-05-12T11:59:44.134Z,43.82
2018-05-12T12:00:44.705Z,44.12
2018-05-12T12:01:45.278Z,44.02
2018-05-12T12:02:45.845Z,44.60
2018-05-12T12:03:46.521Z,45.60
2018-05-12T12:04:46.989Z,43.54
2018-05-12T12:05:47.556Z,43.26
2018-05-12T12:06:48.129Z,44.04
2018-05-12T12:07:48.693Z,44.43
2018-05-12T12:08:49.260Z,42.39
2018-05-12T12:09:49.828Z,43.19
2018-05-12T12:10:50.393Z,44.26
2018-05-12T12:11:50.957Z,45.54
2018-05-12T12:12:51.531Z,43.67
2018-05-12T12:13:52.098Z,43.26
2018-05-12T12:14:52.670Z,45.01
2018-05-12T12:15:53.247Z,43.85
2018-05-12T12:16:53.812Z,43.48
2018-05-12T12:17:54.376Z,42.82
2018-05-12T12:18:54.946Z,42.74
2018-05-12T12:19:55.517Z,43.15
2018-05-12T12:20:56.090Z,42.74
2018-05-12T12:21:56.662Z,42.25
2018-05-12T12:22:57.230Z,42.35
2018-05-12T12:23:57.803Z,41.96
2018-05-12T12:24:58.376Z,43.01
2018-05-12T12:25:58.950Z,43.01
2018-05-12T12:26:59.512Z,43.60
2018-05-12T12:28:00.083Z,44.30
2018-05-12T12:29:00.659Z,44.05
2018-05-12T12:30:01.228Z,43.74
2018-05-12T12:31:01.801Z,41.38
2018-05-12T12:32:02.376Z,41.86
2018-05-12T12:33:02.950Z,43.81
2018-05-12T12:34:03.514Z,44.62
2018-05-12T12:35:04.078Z,44.52
2018-05-12T12:36:04.647Z,43.95
2018-05-12T12:37:05.220Z,41.52
2018-05-12T12:38:05.794Z,40.93
2018-05-12T12:39:06.363Z,41.52
2018-05-12T12:40:06.929Z,41.79
2018-05-12T12:41:07.497Z,43.13
2018-05-12T12:42:08.067Z,43.62
2018-05-12T12:43:08.636Z,43.15
2018-05-12T12:44:09.202Z,41.40
2018-05-12T12:45:09.813Z,41.20
2018-05-12T12:46:10.342Z,41.81
2018-05-12T12:47:10.917Z,40.42
2018-05-12T12:48:11.489Z,41.09
2018-05-12T12:49:12.061Z,41.28
2018-05-12T12:50:12.627Z,40.99
2018-05-12T12:51:13.194Z,40.80
2018-05-12T12:52:13.770Z,41.67
2018-05-12T12:53:14.344Z,40.62
2018-05-12T12:54:14.917Z,41.60
2018-05-12T12:55:15.496Z,42.25
2018-05-12T12:56:16.063Z,41.50
2018-05-12T12:57:16.638Z,40.64
2018-05-12T12:58:17.207Z,40.55
2018-05-12T12:59:17.776Z,40.83
2018-05-12T13:00:18.346Z,40.45
2018-05-12T13:01:18.926Z,41.42